createdAt,value
2022-11-21T00:02:22.879Z,11.55
2022-11-21T00:04:50.517Z,11.93
2022-11-21T00:07:19.724Z,12.45
2022-11-21T00:09:47.366Z,13.13
2022-11-21T00:12:19.900Z,11.93
2022-11-21T00:14:47.509Z,11.07
2022-11-21T00:17:15.153Z,12.77
2022-11-21T00:19:42.846Z,13.05
2022-11-21T00:22:10.414Z,10.70
2022-11-21T00:24:42.846Z,10.77
2022-11-21T00:27:10.605Z,11.68
2022-11-21T00:29:38.272Z,12.07
2022-11-21T00:32:08.535Z,12.30
2022-11-21T00:34:36.071Z,12.75
2022-11-21T00:37:05.663Z,11.48
2022-11-21T00:39:36.325Z,11.82
2022-11-21T00:42:05.395Z,11.93
2022-11-21T00:44:32.899Z,11.80
2022-11-21T00:47:02.496Z,13.13
2022-11-21T00:49:31.945Z,11.27
2022-11-21T00:51:59.458Z,13.50
2022-11-21T00:54:27.175Z,12.98
2022-11-21T00:56:54.834Z,11.55
2022-11-21T00:59:23.698Z,12.75
2022-11-21T01:01:56.579Z,13.15
2022-11-21T01:04:24.131Z,13.25
2022-11-21T01:06:51.690Z,12.15
2022-11-21T01:09:19.368Z,11.20
2022-11-21T01:11:47.079Z,11.88
2022-11-21T01:14:14.585Z,13.18
2022-11-21T01:16:43.600Z,12.10
2022-11-21T01:19:11.139Z,11.38
2022-11-21T01:21:38.626Z,11.90
2022-11-21T01:24:06.249Z,12.45
2022-11-21T01:26:34.052Z,11.63
2022-11-21T01:29:01.591Z,12.40
2022-11-21T01:31:30.075Z,13.45
2022-11-21T01:33:59.916Z,12.75
2022-11-21T01:36:29.309Z,12.85
2022-11-21T01:39:00.629Z,12.20
2022-11-21T01:41:31.379Z,13.23
2022-11-21T01:43:59.268Z,11.07
2022-11-21T01:46:27.130Z,12.55
2022-11-21T01:48:57.618Z,14.13
2022-11-21T01:51:30.974Z,13.30
2022-11-21T01:54:02.176Z,13.75
2022-11-21T01:56:35.657Z,13.48
2022-11-21T01:59:03.727Z,11.85
2022-11-21T02:01:32.077Z,13.98
2022-11-21T02:04:03.101Z,11.50
2022-11-21T02:06:33.055Z,11.52
2022-11-21T02:09:01.141Z,14.52
2022-11-21T02:11:31.691Z,14.10
2022-11-21T02:13:59.776Z,11.80
2022-11-21T02:16:27.730Z,12.38
2022-11-21T02:18:55.376Z,13.77
2022-11-21T02:21:29.928Z,12.38
2022-11-21T02:24:02.414Z,12.95
2022-11-21T02:26:31.447Z,12.52
2022-11-21T02:28:59.690Z,12.05
2022-11-21T02:31:27.343Z,12.25
2022-11-21T02:33:54.860Z,13.45
2022-11-21T02:36:33.607Z,12.55
2022-11-21T02:39:01.518Z,11.85
2022-11-21T02:41:30.706Z,15.32
2022-11-21T02:44:00.826Z,13.30
2022-11-21T02:46:28.907Z,12.90
2022-11-21T02:48:57.308Z,12.60
2022-11-21T02:51:24.877Z,12.98
2022-11-21T02:53:52.383Z,12.40
2022-11-21T02:56:19.962Z,12.85
2022-11-21T02:58:47.620Z,12.25
2022-11-21T03:01:16.565Z,12.70
2022-11-21T03:03:44.150Z,12.90
2022-11-21T03:06:11.716Z,13.27
2022-11-21T03:08:39.255Z,12.40
2022-11-21T03:11:06.906Z,13.23
2022-11-21T03:13:34.411Z,13.48
2022-11-21T03:16:01.928Z,13.27
2022-11-21T03:18:30.844Z,11.75
2022-11-21T03:20:58.617Z,12.77
2022-11-21T03:23:26.163Z,12.88
2022-11-21T03:25:53.711Z,13.15
2022-11-21T03:28:21.197Z,11.75
2022-11-21T03:30:48.740Z,12.55
2022-11-21T03:33:16.296Z,10.98
2022-11-21T03:35:45.284Z,11.68
2022-11-21T03:38:12.752Z,12.40
2022-11-21T03:40:40.288Z,11.98
2022-11-21T03:43:07.975Z,11.85
2022-11-21T03:45:35.760Z,11.85
2022-11-21T03:48:03.306Z,11.23
2022-11-21T03:50:30.835Z,12.68
2022-11-21T03:52:59.767Z,12.90
2022-11-21T03:55:27.395Z,12.68
2022-11-21T03:57:54.925Z,12.30
2022-11-21T04:00:22.587Z,11.98
2022-11-21T04:02:50.104Z,11.63
2022-11-21T04:05:17.632Z,12.32
2022-11-21T04:07:47.184Z,14.02
2022-11-21T04:10:16.460Z,12.52
2022-11-21T04:12:44.350Z,12.85
2022-11-21T04:15:13.925Z,13.00
2022-11-21T04:17:41.815Z,11.52
2022-11-21T04:20:11.647Z,12.80
2022-11-21T04:22:39.298Z,13.10
2022-11-21T04:25:07.390Z,12.88
2022-11-21T04:27:36.321Z,12.95
2022-11-21T04:30:04.085Z,13.60
2022-11-21T04:32:31.659Z,12.38
2022-11-21T04:35:02.304Z,13.73
2022-11-21T04:37:29.835Z,12.35
2022-11-21T04:39:57.405Z,14.20
2022-11-21T04:42:25.273Z,13.52
2022-11-21T04:44:54.873Z,11.90
2022-11-21T04:47:22.351Z,12.43
2022-11-21T04:49:49.890Z,12.60
2022-11-21T04:52:20.713Z,12.38
2022-11-21T04:54:48.271Z,12.18
2022-11-21T04:57:15.917Z,13.27
2022-11-21T04:59:43.836Z,12.43
2022-11-21T05:02:16.307Z,12.35
2022-11-21T05:04:43.806Z,13.18
2022-11-21T05:07:12.461Z,12.35
2022-11-21T05:09:40.193Z,11.82
2022-11-21T05:12:25.593Z,12.23
2022-11-21T05:14:53.244Z,12.73
2022-11-21T05:17:22.349Z,12.82
2022-11-21T05:19:49.904Z,13.52
2022-11-21T05:22:17.600Z,14.02
2022-11-21T05:24:45.292Z,13.05
2022-11-21T05:27:12.890Z,12.25
2022-11-21T05:29:40.460Z,14.95
2022-11-21T05:32:08.120Z,13.73
2022-11-21T05:34:37.070Z,12.52
2022-11-21T05:37:04.941Z,14.30
2022-11-21T05:39:35.868Z,13.40
2022-11-21T05:42:06.449Z,14.65
2022-11-21T05:44:33.082Z,13.50
2022-11-21T05:47:02.822Z,14.00
2022-11-21T05:52:54.475Z,12.90
2022-11-21T05:55:23.647Z,12.10
2022-11-21T05:57:51.225Z,12.57
2022-11-21T06:00:19.758Z,13.52
2022-11-21T06:03:07.980Z,12.38
2022-11-21T06:05:35.907Z,12.30
2022-11-21T06:08:03.603Z,11.63
2022-11-21T06:10:33.016Z,11.23
2022-11-21T06:13:01.042Z,12.07
2022-11-21T06:15:29.614Z,11.57
2022-11-21T06:17:57.953Z,10.88
2022-11-21T06:20:28.165Z,10.57
2022-11-21T06:23:04.353Z,11.60
2022-11-21T06:25:42.326Z,11.57
2022-11-21T06:28:10.184Z,12.10
2022-11-21T06:30:41.001Z,10.27
2022-11-21T06:33:18.107Z,12.13
2022-11-21T06:35:46.332Z,13.27
2022-11-21T06:38:14.156Z,11.65
2022-11-21T06:41:05.490Z,12.57
2022-11-21T06:43:36.316Z,13.52
2022-11-21T06:46:06.308Z,14.25
2022-11-21T06:48:34.628Z,12.57
2022-11-21T06:51:06.560Z,13.52
2022-11-21T06:53:57.499Z,12.70
2022-11-21T06:56:37.801Z,12.40
2022-11-21T06:59:24.916Z,12.57
2022-11-21T07:01:58.875Z,11.98
2022-11-21T07:04:27.081Z,12.50
2022-11-21T07:07:06.851Z,12.25
2022-11-21T07:09:40.321Z,12.38
2022-11-21T07:12:25.905Z,11.13
2022-11-21T07:15:02.680Z,12.07
2022-11-21T07:17:30.569Z,12.10
2022-11-21T07:20:01.633Z,12.48
2022-11-21T07:22:29.386Z,13.32
2022-11-21T07:24:57.206Z,12.45
2022-11-21T07:27:30.137Z,10.85
2022-11-21T07:30:14.785Z,11.60
2022-11-21T07:32:42.585Z,13.02
2022-11-21T07:35:13.786Z,11.52
2022-11-21T07:37:41.435Z,11.60
2022-11-21T07:40:10.231Z,11.32
2022-11-21T07:42:39.246Z,12.93
2022-11-21T07:45:09.666Z,11.02
2022-11-21T07:47:38.138Z,12.05
2022-11-21T07:50:06.992Z,10.57
2022-11-21T07:52:34.733Z,10.80
2022-11-21T07:55:02.729Z,11.63
2022-11-21T07:57:31.273Z,12.40
2022-11-21T08:00:00.312Z,12.40
2022-11-21T08:02:28.890Z,11.65
2022-11-21T08:04:57.942Z,11.50
2022-11-21T08:07:25.648Z,13.75
2022-11-21T08:09:57.109Z,13.85
2022-11-21T08:12:33.932Z,12.43
2022-11-21T08:15:04.941Z,13.32
2022-11-21T08:17:32.886Z,12.40
2022-11-21T08:20:03.480Z,11.32
2022-11-21T08:22:31.654Z,11.88
2022-11-21T08:25:02.889Z,11.50
2022-11-21T08:27:30.500Z,11.57
2022-11-21T08:29:59.875Z,11.48
2022-11-21T08:32:29.209Z,11.77
2022-11-21T08:34:56.814Z,11.75
2022-11-21T08:37:27.988Z,12.07
2022-11-21T08:39:56.371Z,13.23
2022-11-21T08:42:24.019Z,11.13
2022-11-21T08:44:52.005Z,11.57
2022-11-21T08:47:20.621Z,12.82
2022-11-21T08:49:49.986Z,12.65
2022-11-21T08:52:18.575Z,12.77
2022-11-21T08:54:46.341Z,13.02
2022-11-21T08:57:14.076Z,12.40
2022-11-21T08:59:42.070Z,13.48
2022-11-21T09:02:11.440Z,12.43
2022-11-21T09:04:39.603Z,13.52
2022-11-21T09:07:08.615Z,12.07
2022-11-21T09:09:36.314Z,13.32
2022-11-21T09:12:04.068Z,12.02
2022-11-21T09:14:49.894Z,10.95
2022-11-21T09:17:35.128Z,12.30
2022-11-21T09:20:02.852Z,11.05
2022-11-21T09:22:32.017Z,12.55
2022-11-21T09:24:59.676Z,13.75
2022-11-21T09:27:30.356Z,13.32
2022-11-21T09:29:58.116Z,14.10
2022-11-21T09:32:25.806Z,14.02
2022-11-21T09:34:53.568Z,13.48
2022-11-21T09:37:21.189Z,13.93
2022-11-21T09:39:50.774Z,12.57
2022-11-21T09:42:27.986Z,13.35
2022-11-21T09:45:06.749Z,11.98
2022-11-21T09:47:36.149Z,12.40
2022-11-21T09:50:05.725Z,12.80
2022-11-21T09:52:37.416Z,12.75
2022-11-21T09:55:10.900Z,13.43
2022-11-21T09:57:38.730Z,11.65
2022-11-21T10:00:23.423Z,12.57
2022-11-21T10:02:56.921Z,10.90
2022-11-21T10:05:34.433Z,11.07
2022-11-21T10:08:06.452Z,12.13
2022-11-21T10:10:47.041Z,10.88
2022-11-21T10:13:27.508Z,11.57
2022-11-21T10:16:03.503Z,10.00
2022-11-21T10:18:59.675Z,11.18
2022-11-21T10:22:04.757Z,11.13
2022-11-21T10:27:33.979Z,10.18
2022-11-21T10:30:07.217Z,10.60
2022-11-21T10:32:39.824Z,9.77
2022-11-21T10:35:14.833Z,8.60
2022-11-21T10:37:44.865Z,7.55
2022-11-21T10:40:18.865Z,9.85
2022-11-21T10:42:53.568Z,9.65
2022-11-21T10:45:23.722Z,7.97
2022-11-21T10:47:52.605Z,8.32
2022-11-21T10:50:35.488Z,7.88
2022-11-21T10:53:33.291Z,7.82
2022-11-21T10:56:05.000Z,7.20
2022-11-21T10:58:37.814Z,7.25
2022-11-21T11:01:05.898Z,9.25
2022-11-21T11:03:34.351Z,7.90
2022-11-21T11:06:05.187Z,8.32
2022-11-21T11:08:50.234Z,7.55
2022-11-21T11:11:21.711Z,8.68
2022-11-21T11:14:00.327Z,9.30
2022-11-21T11:16:28.865Z,7.75
2022-11-21T11:19:00.827Z,7.72
2022-11-21T11:21:29.371Z,8.32
2022-11-21T11:24:07.737Z,8.40
2022-11-21T11:26:35.561Z,8.68
2022-11-21T11:29:10.964Z,7.32
2022-11-21T11:31:42.979Z,9.70
2022-11-21T11:34:13.107Z,7.47
2022-11-21T11:36:47.125Z,8.73
2022-11-21T11:42:23.752Z,8.18
2022-11-21T11:45:16.273Z,7.13
2022-11-21T11:47:50.298Z,6.25
2022-11-21T11:50:23.449Z,6.53
2022-11-21T11:52:54.257Z,6.70
2022-11-21T11:55:24.637Z,5.22
2022-11-21T11:57:55.094Z,6.43
2022-11-21T12:00:35.696Z,6.10
2022-11-21T12:03:05.225Z,6.15
2022-11-21T12:05:33.859Z,6.38
2022-11-21T12:08:40.193Z,6.05
2022-11-21T12:11:15.374Z,5.38
2022-11-21T12:13:45.028Z,5.95
2022-11-21T12:16:14.677Z,6.20
2022-11-21T12:18:49.151Z,4.97
2022-11-21T12:21:18.644Z,5.07
2022-11-21T12:23:47.653Z,5.85
2022-11-21T12:26:32.893Z,5.05
2022-11-21T12:29:08.351Z,5.53
2022-11-21T12:31:42.410Z,5.28
2022-11-21T12:36:45.205Z,6.47
2022-11-21T12:39:33.960Z,5.22
2022-11-21T12:42:23.038Z,6.28
2022-11-21T12:45:01.273Z,6.63
2022-11-21T12:47:57.195Z,6.45
2022-11-21T12:50:44.975Z,6.57
2022-11-21T12:53:34.948Z,5.97
2022-11-21T12:56:06.187Z,6.70
2022-11-21T12:58:38.211Z,5.88
2022-11-21T13:01:20.860Z,5.85
2022-11-21T13:03:55.558Z,5.93
2022-11-21T13:06:41.087Z,5.63
2022-11-21T13:12:21.851Z,5.35
2022-11-21T13:14:55.261Z,6.15
2022-11-21T13:17:34.858Z,5.97
2022-11-21T13:20:06.870Z,5.72
2022-11-21T13:22:57.432Z,5.07
2022-11-21T13:25:48.735Z,6.55
2022-11-21T13:28:33.654Z,5.53
2022-11-21T13:31:12.853Z,4.55
2022-11-21T13:33:48.228Z,4.80
2022-11-21T13:39:32.375Z,3.75
2022-11-21T13:45:36.726Z,3.88
2022-11-21T13:48:25.882Z,3.42
2022-11-21T13:51:10.375Z,4.50
2022-11-21T13:54:04.268Z,3.28
2022-11-21T13:56:38.428Z,3.90
2022-11-21T13:59:15.473Z,4.07
2022-11-21T14:01:56.248Z,3.75
2022-11-21T14:05:07.717Z,4.10
2022-11-21T14:10:24.817Z,3.65
2022-11-21T14:12:57.205Z,3.13
2022-11-21T14:15:33.889Z,4.45
2022-11-21T14:18:18.409Z,3.70
2022-11-21T14:23:23.298Z,3.55
2022-11-21T14:28:49.260Z,3.88
2022-11-21T14:31:21.956Z,3.40
2022-11-21T14:34:11.430Z,4.13
2022-11-21T14:36:59.131Z,4.25
2022-11-21T14:39:41.946Z,3.42
2022-11-21T14:42:14.262Z,4.30
2022-11-21T14:44:42.288Z,3.58
2022-11-21T14:47:19.635Z,3.85
2022-11-21T14:50:07.790Z,4.10
2022-11-21T14:55:48.095Z,3.70
2022-11-21T14:58:42.545Z,3.35
2022-11-21T15:07:20.671Z,3.22
2022-11-21T15:16:12.908Z,3.17
2022-11-21T15:18:57.733Z,3.13
2022-11-21T15:21:28.956Z,3.00
2022-11-21T15:24:25.439Z,2.92
2022-11-21T15:30:02.265Z,3.13
2022-11-21T15:32:34.118Z,2.95
2022-11-21T15:35:29.019Z,2.88
2022-11-21T15:52:06.207Z,3.38
2022-11-21T15:57:39.680Z,3.47
2022-11-21T16:00:10.384Z,2.70
2022-11-21T16:02:47.151Z,3.42
2022-11-21T16:05:24.769Z,2.58
2022-11-21T16:07:57.524Z,2.60
2022-11-21T16:10:28.026Z,2.45
2022-11-21T16:12:59.530Z,2.80
2022-11-21T16:15:27.135Z,3.17
2022-11-21T16:17:54.815Z,3.30
2022-11-21T16:20:23.073Z,2.78
2022-11-21T16:22:50.664Z,2.72
2022-11-21T16:25:19.776Z,3.15
2022-11-21T16:27:47.399Z,3.15
2022-11-21T16:30:15.498Z,3.13
2022-11-21T16:32:44.150Z,2.70
2022-11-21T16:35:26.940Z,4.10
2022-11-21T16:38:01.340Z,2.95
2022-11-21T16:40:31.022Z,3.70
2022-11-21T16:46:10.053Z,3.58
2022-11-21T16:48:38.438Z,4.13
2022-11-21T16:51:16.020Z,3.55
2022-11-21T16:53:44.324Z,3.25
2022-11-21T16:56:26.732Z,4.00
2022-11-21T16:58:55.182Z,3.05
2022-11-21T17:01:23.410Z,3.70
2022-11-21T17:03:52.972Z,3.67
2022-11-21T17:06:21.797Z,3.90
2022-11-21T17:18:53.239Z,3.22
2022-11-21T17:21:23.224Z,3.75
2022-11-21T17:23:50.981Z,4.38
2022-11-21T17:26:19.600Z,4.10
2022-11-21T17:28:52.082Z,4.63
2022-11-21T17:31:19.890Z,3.47
2022-11-21T17:34:00.393Z,3.60
2022-11-21T17:36:29.979Z,3.55
2022-11-21T17:39:01.161Z,3.28
2022-11-21T17:41:32.083Z,2.95
2022-11-21T17:44:01.893Z,3.15
2022-11-21T17:46:31.131Z,3.05
2022-11-21T17:48:59.334Z,3.53
2022-11-21T17:51:28.038Z,3.13
2022-11-21T17:53:59.950Z,3.20
2022-11-21T17:56:28.367Z,2.95
2022-11-21T17:58:56.235Z,3.13
2022-11-21T18:01:24.735Z,3.58
2022-11-21T18:03:55.373Z,2.85
2022-11-21T18:06:23.220Z,3.40
2022-11-21T18:08:50.807Z,3.92
2022-11-21T18:11:21.466Z,3.42
2022-11-21T18:13:51.068Z,3.42
2022-11-21T18:16:19.784Z,3.55
2022-11-21T18:18:47.573Z,3.53
2022-11-21T18:21:15.974Z,3.17
2022-11-21T18:23:45.007Z,4.20
2022-11-21T18:26:17.315Z,3.50
2022-11-21T18:28:46.944Z,3.38
2022-11-21T18:31:19.150Z,3.55
2022-11-21T18:33:49.231Z,3.25
2022-11-21T18:36:19.227Z,3.45
2022-11-21T18:38:50.329Z,3.45
2022-11-21T18:41:22.216Z,3.13
2022-11-21T18:43:57.311Z,3.67
2022-11-21T18:46:26.859Z,3.70
2022-11-21T18:49:07.262Z,5.30
2022-11-21T18:51:36.450Z,3.85
2022-11-21T18:54:11.393Z,4.72
2022-11-21T18:56:40.447Z,5.63
2022-11-21T18:59:22.997Z,3.60
2022-11-21T19:01:55.034Z,3.83
2022-11-21T19:04:23.836Z,4.15
2022-11-21T19:06:52.133Z,4.07
2022-11-21T19:09:32.276Z,3.90
2022-11-21T19:12:00.685Z,3.30
2022-11-21T19:14:31.905Z,3.38
2022-11-21T19:17:12.642Z,2.92
2022-11-21T19:33:14.137Z,2.97
2022-11-21T19:35:51.451Z,3.13
2022-11-21T19:38:22.963Z,3.17
2022-11-21T19:41:08.396Z,3.15
2022-11-21T19:43:36.037Z,2.92
2022-11-21T19:46:07.239Z,2.55
2022-11-21T19:48:36.247Z,2.88
2022-11-21T19:51:04.345Z,2.92
2022-11-21T19:53:36.175Z,2.70
2022-11-21T19:56:11.460Z,2.70
2022-11-21T19:58:39.444Z,2.67
2022-11-21T20:01:18.517Z,2.35
2022-11-21T20:03:51.644Z,2.97
2022-11-21T20:06:28.618Z,3.22
2022-11-21T20:08:57.590Z,3.90
2022-11-21T20:11:30.288Z,3.05
2022-11-21T20:14:21.372Z,2.95
2022-11-21T20:16:56.158Z,2.85
2022-11-21T20:19:28.472Z,3.20
2022-11-21T20:21:58.641Z,3.05
2022-11-21T20:24:41.499Z,3.13
2022-11-21T20:27:12.219Z,3.67
2022-11-21T20:29:41.659Z,3.20
2022-11-21T20:32:26.393Z,3.20
2022-11-21T20:34:57.953Z,2.90
2022-11-21T20:37:25.669Z,3.22
2022-11-21T20:39:53.344Z,2.85
2022-11-21T20:42:21.046Z,3.03
2022-11-21T20:47:44.937Z,2.85
2022-11-21T20:50:48.774Z,2.97
2022-11-21T20:53:51.605Z,3.30
2022-11-21T20:55:54.803Z,2.78
2022-11-21T20:58:22.567Z,2.42
2022-11-21T21:00:55.432Z,2.97
2022-11-21T21:03:23.222Z,2.75
2022-11-21T21:05:56.286Z,2.70
2022-11-21T21:08:26.741Z,3.25
2022-11-21T21:11:06.133Z,2.45
2022-11-21T21:13:34.738Z,2.70
2022-11-21T21:16:09.282Z,2.83
2022-11-21T21:18:37.181Z,3.33
2022-11-21T21:21:16.905Z,4.57
2022-11-21T21:23:48.619Z,4.18
2022-11-21T21:26:20.822Z,5.32
2022-11-21T21:28:53.430Z,4.88
2022-11-21T21:31:22.523Z,5.40
2022-11-21T21:33:51.790Z,4.32
2022-11-21T21:36:38.750Z,5.05
2022-11-21T21:39:08.008Z,4.90
2022-11-21T21:41:39.964Z,4.82
2022-11-21T21:44:08.247Z,5.40
2022-11-21T21:46:43.312Z,5.43
2022-11-21T21:49:10.933Z,4.43
2022-11-21T21:51:41.466Z,4.22
2022-11-21T21:54:16.142Z,4.18
2022-11-21T21:56:43.863Z,4.35
2022-11-21T21:59:11.945Z,3.80
2022-11-21T22:02:01.613Z,3.25
2022-11-21T22:04:40.622Z,3.28
2022-11-21T22:07:11.038Z,3.17
2022-11-21T22:09:43.339Z,2.95
2022-11-21T22:12:11.503Z,4.00
2022-11-21T22:14:39.114Z,4.07
2022-11-21T22:17:06.791Z,4.65
2022-11-21T22:19:37.523Z,4.28
2022-11-21T22:22:06.574Z,4.07
2022-11-21T22:24:34.471Z,3.58
2022-11-21T22:27:06.210Z,2.78
2022-11-21T22:29:34.555Z,3.33
2022-11-21T22:32:02.575Z,2.15
2022-11-21T22:34:40.227Z,2.05
2022-11-21T22:37:10.364Z,1.70
2022-11-21T22:39:40.480Z,1.60
2022-11-21T22:42:10.052Z,2.05
2022-11-21T22:44:37.748Z,2.00
2022-11-21T22:47:05.387Z,1.77
2022-11-21T22:49:33.075Z,1.98
2022-11-21T22:52:00.765Z,2.10
2022-11-21T22:54:31.806Z,2.05
2022-11-21T22:56:59.449Z,2.22
2022-11-21T22:59:31.062Z,2.45
2022-11-21T23:01:58.797Z,2.20
2022-11-21T23:04:26.404Z,2.30
2022-11-21T23:06:56.484Z,2.30
2022-11-21T23:09:24.230Z,1.90
2022-11-21T23:11:52.003Z,2.15
2022-11-21T23:14:22.773Z,2.15
2022-11-21T23:16:51.904Z,2.60
2022-11-21T23:19:19.607Z,2.65
2022-11-21T23:21:50.730Z,2.13
2022-11-21T23:24:19.498Z,2.83
2022-11-21T23:26:47.224Z,2.47
2022-11-21T23:29:14.910Z,3.10
2022-11-21T23:31:42.654Z,3.38
2022-11-21T23:34:12.285Z,2.97
2022-11-21T23:36:40.392Z,2.30
2022-11-21T23:39:08.282Z,2.67
2022-11-21T23:41:36.346Z,2.95
2022-11-21T23:44:07.398Z,3.30
2022-11-21T23:46:35.182Z,2.90
2022-11-21T23:49:03.017Z,2.80
2022-11-21T23:51:32.355Z,2.75
2022-11-21T23:54:00.243Z,2.58
2022-11-21T23:56:28.200Z,2.70
2022-11-21T23:59:00.447Z,2.72
